Saint-Auban-Sur-Durance, France

2:35 PM CEST on August 21, 2014 (GMT +0200)
alpes du sud | Change Station
CLOSE
Current Station
Personal Weather Station
Location: SISTERON, SISTERON
Elevation: 1500 ft
Nearby Weather Stations

Elev 1500 ft 44.16 °N, 5.93 °E | Updated 5 minutes ago

Clear
Clear
76.0 °F
Feels Like 78 °F
N
0.0
Wind Variable Wind from SE
Gusts 2.0 mph

Today
High -- | Low -- °F
--% Chance of Precip.
Yesterday
High -- | Low -- °F
Precip. -- in
6:46 AM 8:31 PM
Waning Crescent, 14% visible
Pressure 29.98 in
Visibility 6.2 miles
Clouds
Heat Index 78 °F
Dew Point 51 °F
Humidity 42%
Rainfall 0.00 in
Snow Depth Not available.
UV Not available.
Pollen Not available.
Air Quality Not available.
Flu Activity Not available.
METAR LFMY 211230Z AUTO 30009KT 260V340 9999 NSC 26/08 Q1015

More Conditions Fewer Conditions

Pressure 29.98 in
Visibility 6.2 miles
Clouds
Heat Index 78 °F
Dew Point 51 °F
Humidity 42%
Rainfall 0.00 in
Snow Depth Not available.
UV Not available.
Pollen Not available.
Air Quality Not available.
Flu Activity Not available.
METAR LFMY 211230Z AUTO 30009KT 260V340 9999 NSC 26/08 Q1015

More Conditions Fewer Conditions

10-Day Weather Forecast

Almanac

Astronomy

Aug. 21, 2014 Rise Set
Actual Time 6:46 AM CEST 8:31 PM CEST
Civil Twilight 6:15 AM CEST 9:01 PM CEST
Nautical Twilight 5:38 AM CEST 9:39 PM CEST
Astronomical Twilight 4:57 AM CEST 10:19 PM CEST
Moon 2:59 AM CEST 5:52 PM CEST
Length of Visible Light 14h 46m
Length of Day
13h 44m
Tomorrow will be 2m 48s shorter.
Waning Crescent, 14% of the Moon is Illuminated
Today
Waning Crescent
Aug 25
New
Sep 2
First Quarter
Sep 8
Full
Sep 15
Last Quarter

Yesterday's Extremes

Country Highs Country Lows

Community

WunderPhotos

Upload Photos

1,745,892 photos uploaded!

WunderBlogs® & News

Nearby

Snow Depth

Not available.

Earthquake Activity

City Distance Mag. Time & Date
No recent earthquake activity has been reported nearby.
Minimum magnitude displayed is 2.5.

Coastal Water Temperatures

Place Temperature
No Stations Reporting

Nearby Weather Stations